Time;durP1;ratioP1;P1;durP2;ratioP2;P2;SDS_P1;SDS_P2;PMS_P1;PMS_P2;Temp;Humidity;BMP_temperature;BMP_pressure;BME280_temperature;BME280_humidity;BME280_pressure;Samples;Min_cycle;Max_cycle;Signal;HPM_P1;HPM_P2
2023/10/03 00:00:22;;;;;;;10.60;6.10;;;;;;;15.29;76.46;99552.81;232896;214;150477;-63
2023/10/03 00:05:47;;;;;;;10.70;6.20;;;;;;;15.28;76.65;99550.16;232853;214;141445;-65
2023/10/03 00:10:51;;;;;;;13.20;6.80;;;;;;;15.28;76.55;99545.70;232727;214;138376;-61
2023/10/03 00:15:55;;;;;;;10.60;6.60;;;;;;;15.28;76.42;99536.97;232860;214;149272;-62
2023/10/03 00:21:00;;;;;;;14.20;7.20;;;;;;;15.26;76.47;99533.20;232775;214;139285;-60
2023/10/03 00:26:04;;;;;;;15.00;7.40;;;;;;;15.23;76.64;99534.83;232865;214;137091;-62
2023/10/03 00:31:11;;;;;;;10.80;6.50;;;;;;;15.18;76.52;99539.14;232913;214;149340;-62
2023/10/03 00:36:24;;;;;;;13.50;5.70;;;;;;;15.16;76.72;99533.95;232814;214;140229;-60
2023/10/03 00:41:29;;;;;;;13.70;6.00;;;;;;;15.16;76.82;99525.52;232842;214;138422;-62
2023/10/03 00:46:33;;;;;;;12.50;6.20;;;;;;;15.17;76.82;99518.67;232978;214;148065;-62
2023/10/03 00:51:40;;;;;;;12.00;6.00;;;;;;;15.16;76.87;99506.60;232781;214;139315;-61
2023/10/03 00:56:45;;;;;;;11.60;6.30;;;;;;;15.12;76.83;99500.22;232888;214;137411;-60
2023/10/03 01:01:49;;;;;;;11.10;5.80;;;;;;;15.08;76.86;99493.40;232796;214;149347;-60
2023/10/03 01:06:53;;;;;;;8.90;5.70;;;;;;;15.07;76.93;99485.05;232636;214;139427;-61
2023/10/03 01:11:56;;;;;;;10.10;6.70;;;;;;;15.06;76.84;99480.86;232807;214;137661;-60
2023/10/03 01:17:02;;;;;;;13.90;7.20;;;;;;;15.07;76.82;99471.51;232697;214;151242;-62
2023/10/03 01:22:06;;;;;;;11.30;6.80;;;;;;;15.04;76.62;99470.46;232847;214;140094;-59
2023/10/03 01:27:11;;;;;;;11.70;6.80;;;;;;;15.00;76.72;99469.13;232881;214;137529;-63
2023/10/03 01:32:15;;;;;;;11.00;6.00;;;;;;;14.95;76.73;99463.64;232920;214;151150;-61
2023/10/03 01:37:19;;;;;;;11.60;5.90;;;;;;;14.92;76.77;99465.80;232969;214;139670;-61
2023/10/03 01:42:23;;;;;;;12.30;5.60;;;;;;;14.92;76.81;99463.69;232881;215;138444;-60
2023/10/03 01:47:26;;;;;;;13.10;6.00;;;;;;;14.95;76.56;99463.84;232677;215;148947;-60
2023/10/03 01:52:30;;;;;;;12.00;6.00;;;;;;;14.89;76.41;99464.18;232780;215;138295;-62
2023/10/03 01:57:33;;;;;;;10.30;5.50;;;;;;;14.85;76.33;99459.14;233028;215;138350;-62
2023/10/03 02:02:38;;;;;;;12.70;5.20;;;;;;;14.76;76.41;99452.85;233052;215;151181;-62
2023/10/03 02:07:43;;;;;;;13.30;5.60;;;;;;;14.67;76.55;99447.77;233002;215;137494;-61
2023/10/03 02:12:55;;;;;;;11.80;5.50;;;;;;;14.64;76.82;99446.36;232876;214;138640;-59
2023/10/03 02:17:59;;;;;;;7.10;4.80;;;;;;;14.65;76.87;99438.44;232917;214;149777;-63
2023/10/03 02:23:05;;;;;;;11.10;5.10;;;;;;;14.69;76.78;99434.27;232784;214;140982;-64
2023/10/03 02:28:08;;;;;;;8.90;5.40;;;;;;;14.71;76.65;99434.81;232933;214;137083;-64
2023/10/03 02:33:21;;;;;;;8.20;5.10;;;;;;;14.65;76.56;99435.04;232794;214;150657;-63
2023/10/03 02:38:29;;;;;;;9.60;4.70;;;;;;;14.58;76.70;99428.09;232687;214;139365;-61
2023/10/03 02:43:46;;;;;;;9.70;4.70;;;;;;;14.54;76.84;99427.62;232910;214;137920;-62
2023/10/03 02:49:00;;;;;;;9.40;4.80;;;;;;;14.55;76.79;99424.77;232824;214;149432;-57
2023/10/03 02:54:05;;;;;;;12.60;5.00;;;;;;;14.53;76.70;99423.44;232766;214;139046;-58
2023/10/03 02:59:09;;;;;;;12.00;5.40;;;;;;;14.52;76.63;99418.73;232937;215;137660;-59
2023/10/03 03:04:17;;;;;;;10.80;4.90;;;;;;;14.49;76.45;99414.81;232842;214;149602;-56
2023/10/03 03:09:23;;;;;;;186.80;158.30;;;;;;;14.44;76.59;99411.23;232790;214;139004;-59
2023/10/03 03:14:27;;;;;;;11.50;5.50;;;;;;;14.40;76.88;99411.83;232875;214;137815;-63
2023/10/03 03:19:33;;;;;;;8.60;4.40;;;;;;;14.39;76.79;99407.09;232880;214;148149;-62
2023/10/03 03:24:38;;;;;;;27.90;18.30;;;;;;;14.44;76.61;99398.91;232884;214;139875;-63
2023/10/03 03:30:02;;;;;;;14.90;5.90;;;;;;;14.45;76.47;99395.79;232822;214;137923;-63
2023/10/03 03:35:09;;;;;;;9.90;4.60;;;;;;;14.39;76.30;99401.71;232858;214;153852;-64
2023/10/03 03:40:25;;;;;;;73.30;54.20;;;;;;;14.32;76.56;99400.25;232785;214;139308;-66
2023/10/03 03:45:30;;;;;;;10.90;4.70;;;;;;;14.30;76.76;99395.58;232818;215;137671;-65
2023/10/03 03:50:34;;;;;;;7.90;4.70;;;;;;;14.27;76.55;99393.00;232762;214;150293;-62
2023/10/03 03:55:38;;;;;;;9.30;5.20;;;;;;;14.28;76.75;99392.20;232770;214;138882;-62
2023/10/03 04:00:47;;;;;;;9.50;4.70;;;;;;;14.31;76.74;99389.80;232812;214;137230;-62
2023/10/03 04:05:51;;;;;;;10.70;4.90;;;;;;;14.28;76.56;99385.06;232815;214;150318;-61
2023/10/03 04:10:55;;;;;;;8.80;5.30;;;;;;;14.19;76.78;99381.08;232769;214;139683;-59
2023/10/03 04:16:00;;;;;;;11.10;5.40;;;;;;;14.12;77.08;99367.60;232883;214;138460;-59
2023/10/03 04:21:05;;;;;;;11.10;5.50;;;;;;;14.10;77.16;99364.03;232783;214;149406;-61
2023/10/03 04:26:09;;;;;;;10.90;5.00;;;;;;;14.07;77.24;99365.46;232844;214;138785;-59
2023/10/03 04:31:12;;;;;;;14.50;5.80;;;;;;;14.07;77.34;99365.30;232855;214;138028;-61
2023/10/03 04:36:17;;;;;;;11.20;6.00;;;;;;;14.09;77.43;99359.44;232752;214;149677;-61
2023/10/03 04:41:21;;;;;;;15.30;6.40;;;;;;;14.07;77.45;99360.84;232912;214;138822;-63
2023/10/03 04:46:25;;;;;;;9.40;5.10;;;;;;;14.03;77.35;99360.05;232831;214;137869;-61
2023/10/03 04:51:29;;;;;;;10.50;5.90;;;;;;;14.02;77.49;99360.70;232900;214;149427;-62
2023/10/03 04:56:32;;;;;;;17.50;6.30;;;;;;;14.03;77.43;99360.42;232946;214;140178;-63
2023/10/03 05:01:36;;;;;;;10.40;5.40;;;;;;;14.03;77.56;99358.63;233085;214;137904;-62
2023/10/03 05:06:42;;;;;;;15.00;6.60;;;;;;;14.05;77.68;99351.55;233038;214;149315;-63
2023/10/03 05:11:50;;;;;;;13.60;7.10;;;;;;;14.04;77.82;99351.62;233009;214;137872;-64
2023/10/03 05:16:54;;;;;;;16.20;6.50;;;;;;;14.01;78.01;99349.87;232897;214;137416;-60
2023/10/03 05:21:59;;;;;;;14.40;5.90;;;;;;;14.04;78.19;99350.35;232885;214;149861;-62
2023/10/03 05:27:04;;;;;;;15.00;6.40;;;;;;;14.09;78.10;99351.09;233051;214;140058;-66
2023/10/03 05:32:08;;;;;;;;;;;;;;;14.11;78.11;99343.98;233057;214;137043;-66
2023/10/03 05:37:12;;;;;;;16.10;6.30;;;;;;;14.15;78.22;99347.80;232991;214;149717;-64
2023/10/03 05:42:17;;;;;;;16.10;5.70;;;;;;;14.16;78.25;99344.88;232835;214;139071;-62
2023/10/03 05:47:21;;;;;;;;;;;;;;;14.16;78.36;99343.59;232790;214;137753;-62
2023/10/03 05:52:25;;;;;;;11.40;5.40;;;;;;;14.18;78.65;99338.85;232916;215;152366;-59
2023/10/03 05:57:29;;;;;;;13.20;5.90;;;;;;;14.23;78.60;99342.04;232749;214;139506;-61
2023/10/03 06:02:34;;;;;;;13.70;6.10;;;;;;;14.32;78.99;99340.47;232814;214;138417;-63
2023/10/03 06:07:41;;;;;;;13.90;6.20;;;;;;;14.41;79.01;99337.16;232819;214;149182;-66
2023/10/03 06:12:45;;;;;;;12.60;5.80;;;;;;;14.48;79.20;99336.11;232700;214;139010;-67
2023/10/03 06:17:48;;;;;;;14.10;6.30;;;;;;;14.56;79.49;99337.15;232752;214;137113;-68
2023/10/03 06:22:53;;;;;;;11.30;5.90;;;;;;;14.68;79.69;99338.61;232720;214;149801;-65
2023/10/03 06:27:57;;;;;;;13.30;6.20;;;;;;;14.84;79.80;99333.30;232821;214;139520;-62
2023/10/03 06:33:03;;;;;;;14.30;6.70;;;;;;;15.04;79.78;99332.69;232926;214;137057;-62
2023/10/03 06:38:07;;;;;;;20.10;7.80;;;;;;;15.20;79.71;99336.42;232669;214;150476;-62
2023/10/03 06:43:12;;;;;;;15.70;6.80;;;;;;;15.37;79.76;99334.28;232922;214;139685;-63
2023/10/03 06:48:16;;;;;;;19.10;10.80;;;;;;;15.53;79.69;99334.98;232816;215;138619;-66
2023/10/03 06:53:23;;;;;;;19.30;10.70;;;;;;;15.74;79.60;99332.84;232829;215;149850;-59
2023/10/03 06:58:27;;;;;;;16.90;8.00;;;;;;;15.99;79.33;99325.36;232754;215;139691;-64
2023/10/03 07:03:31;;;;;;;15.40;7.70;;;;;;;16.18;78.82;99320.39;232771;215;137206;-65
2023/10/03 07:08:35;;;;;;;23.40;7.50;;;;;;;16.35;78.63;99317.26;232704;215;151358;-64
2023/10/03 07:13:39;;;;;;;14.90;6.50;;;;;;;16.47;78.24;99315.54;232796;215;138740;-65
2023/10/03 07:18:46;;;;;;;13.80;6.80;;;;;;;16.62;77.95;99316.27;232740;215;139399;-65
2023/10/03 07:23:51;;;;;;;18.80;7.20;;;;;;;16.80;77.59;99314.59;232832;215;150216;-64
2023/10/03 07:29:02;;;;;;;18.90;7.10;;;;;;;17.01;76.96;99316.30;232756;214;140173;-60
2023/10/03 07:34:07;;;;;;;18.50;6.50;;;;;;;17.19;76.58;99315.48;232907;214;138503;-66
2023/10/03 07:39:11;;;;;;;15.90;7.30;;;;;;;17.35;76.05;99311.06;232774;214;149912;-64
2023/10/03 07:44:14;;;;;;;13.30;6.00;;;;;;;17.47;75.63;99309.08;232877;214;139422;-59
2023/10/03 07:49:18;;;;;;;15.80;7.00;;;;;;;17.65;75.22;99301.64;232933;214;137905;-61
2023/10/03 07:54:22;;;;;;;21.20;6.50;;;;;;;17.88;74.98;99296.97;232939;214;149431;-59
2023/10/03 07:59:25;;;;;;;106.10;71.00;;;;;;;18.14;74.13;99291.59;232824;214;138759;-59
2023/10/03 08:04:31;;;;;;;24.90;14.00;;;;;;;18.39;73.80;99289.02;232825;214;137929;-60
2023/10/03 08:09:36;;;;;;;197.70;142.70;;;;;;;18.59;72.92;99285.23;232852;214;149317;-61
2023/10/03 08:14:40;;;;;;;19.50;11.20;;;;;;;18.78;72.12;99271.27;232759;214;138358;-62
2023/10/03 08:19:48;;;;;;;13.90;6.30;;;;;;;18.92;71.50;99262.91;232831;214;138483;-61
2023/10/03 08:24:52;;;;;;;13.20;5.90;;;;;;;19.11;71.16;99259.02;232796;214;149528;-62
2023/10/03 08:29:58;;;;;;;13.10;5.20;;;;;;;19.34;70.32;99248.38;232848;214;139687;-58
2023/10/03 08:35:08;;;;;;;11.60;5.10;;;;;;;19.57;69.46;99243.30;232830;214;137550;-61
2023/10/03 08:40:19;;;;;;;11.50;5.60;;;;;;;19.75;69.03;99236.13;232840;214;151390;-61
2023/10/03 08:45:26;;;;;;;9.70;5.10;;;;;;;19.90;68.52;99227.48;232915;214;140827;-62
2023/10/03 08:50:37;;;;;;;13.90;4.80;;;;;;;20.07;68.36;99221.53;232975;214;136998;-60
2023/10/03 08:55:45;;;;;;;11.70;4.60;;;;;;;20.21;67.76;99213.38;232800;214;150989;-61
2023/10/03 09:00:50;;;;;;;12.20;5.00;;;;;;;20.34;67.16;99205.21;232972;214;140336;-60
2023/10/03 09:05:54;;;;;;;16.20;5.30;;;;;;;20.46;66.91;99200.70;232842;214;137490;-59
2023/10/03 09:11:00;;;;;;;13.50;4.30;;;;;;;20.58;66.42;99197.90;232901;214;149080;-60
2023/10/03 09:16:14;;;;;;;10.10;5.40;;;;;;;20.67;65.52;99193.95;232836;214;139461;-59
2023/10/03 09:21:27;;;;;;;8.80;4.00;;;;;;;20.86;65.72;99187.34;232993;214;141012;-59
2023/10/03 09:26:45;;;;;;;9.00;4.60;;;;;;;21.11;65.37;99180.09;232923;214;150497;-59
2023/10/03 09:31:51;;;;;;;12.90;4.10;;;;;;;21.32;64.82;99177.52;232856;214;139118;-59
2023/10/03 09:36:55;;;;;;;11.10;4.00;;;;;;;21.50;64.20;99178.49;232988;214;137312;-59
2023/10/03 09:42:03;;;;;;;7.20;3.90;;;;;;;21.68;63.94;99169.91;232903;214;151508;-60
2023/10/03 09:47:08;;;;;;;56.30;41.80;;;;;;;21.86;63.88;99161.13;232798;214;138702;-61
2023/10/03 09:52:24;;;;;;;173.50;136.10;;;;;;;22.04;64.08;99154.46;232703;214;137389;-61
2023/10/03 09:57:29;;;;;;;9.80;5.80;;;;;;;22.22;63.04;99148.63;232902;214;149188;-61
2023/10/03 10:02:36;;;;;;;9.40;4.30;;;;;;;22.44;62.65;99147.16;232678;214;139832;-61
2023/10/03 10:07:50;;;;;;;8.20;3.80;;;;;;;22.65;62.32;99137.36;232857;214;136946;-61
2023/10/03 10:13:20;;;;;;;7.40;3.40;;;;;;;22.93;61.70;99125.44;232909;215;149682;-58
2023/10/03 10:18:55;;;;;;;5.90;2.90;;;;;;;23.20;59.47;99122.17;232903;215;140998;-55
2023/10/03 10:24:20;;;;;;;8.10;3.50;;;;;;;23.44;57.76;99113.88;232907;215;137445;-59
2023/10/03 10:29:25;;;;;;;11.40;3.40;;;;;;;23.72;57.61;99113.67;232845;215;150224;-60
2023/10/03 10:34:36;;;;;;;7.80;3.70;;;;;;;23.94;55.26;99106.12;232750;215;138941;-60
2023/10/03 10:39:56;;;;;;;7.20;3.70;;;;;;;24.08;54.05;99103.71;232887;215;137434;-61
2023/10/03 10:45:13;;;;;;;6.80;3.40;;;;;;;24.13;53.19;99094.52;232995;214;148311;-63
2023/10/03 10:50:21;;;;;;;8.00;3.90;;;;;;;24.19;53.41;99084.10;232774;214;139631;-59
2023/10/03 10:55:26;;;;;;;8.00;3.90;;;;;;;24.28;52.90;99077.98;232846;215;137847;-56
2023/10/03 11:00:33;;;;;;;;;;;;;;;24.37;52.86;99071.89;232886;215;151025;-57
2023/10/03 11:05:44;;;;;;;11.30;7.00;;;;;;;24.40;52.60;99068.04;232894;214;140084;-58
2023/10/03 11:10:52;;;;;;;21.10;13.70;;;;;;;24.45;52.59;99067.05;232896;214;137027;-58
2023/10/03 11:15:56;;;;;;;9.30;3.90;;;;;;;24.49;51.72;99055.55;232762;214;149538;-59
2023/10/03 11:21:03;;;;;;;7.70;3.80;;;;;;;24.56;52.07;99051.70;232892;215;140984;-59
2023/10/03 11:26:08;;;;;;;8.60;3.90;;;;;;;24.66;51.98;99051.66;233022;215;136991;-60
2023/10/03 11:31:13;;;;;;;8.30;4.20;;;;;;;24.77;50.87;99046.20;232791;215;149893;-59
2023/10/03 11:36:17;;;;;;;;;;;;;;;24.92;51.39;99038.41;232926;215;139421;-61
2023/10/03 11:41:32;;;;;;;8.60;4.50;;;;;;;25.16;51.23;99021.52;232867;214;134734;-60
2023/10/03 11:46:37;;;;;;;7.50;4.10;;;;;;;25.47;50.94;99014.03;232900;215;149221;-59
2023/10/03 11:51:45;;;;;;;8.50;4.10;;;;;;;25.78;49.90;99005.76;232937;215;140030;-61
2023/10/03 11:56:48;;;;;;;7.30;4.10;;;;;;;25.95;48.48;98998.52;232834;215;136975;-61
2023/10/03 12:01:56;;;;;;;;;;;;;;;26.06;48.91;98990.15;232967;215;150931;-61
2023/10/03 12:07:01;;;;;;;8.00;4.30;;;;;;;26.11;48.18;98983.05;233075;214;139526;-60
2023/10/03 12:12:05;;;;;;;7.50;4.20;;;;;;;26.07;47.64;98977.02;232986;215;136995;-61
2023/10/03 12:17:11;;;;;;;33.50;29.10;;;;;;;25.95;47.17;98965.59;232927;215;231844;-60
2023/10/03 12:22:16;;;;;;;6.70;5.10;;;;;;;25.83;47.15;98958.55;232951;215;138966;-59
2023/10/03 12:27:19;;;;;;;7.40;4.80;;;;;;;25.75;47.08;98951.81;233007;215;137717;-62
2023/10/03 12:32:22;;;;;;;7.90;4.70;;;;;;;25.65;46.70;98943.75;232783;214;149450;-61
2023/10/03 12:37:28;;;;;;;9.60;4.70;;;;;;;25.59;46.69;98938.70;232909;214;139414;-61
2023/10/03 12:42:32;;;;;;;8.30;4.90;;;;;;;25.53;46.16;98938.63;232889;214;139547;-61
2023/10/03 12:47:36;;;;;;;8.50;4.70;;;;;;;25.47;45.98;98934.21;232816;214;149476;-61
2023/10/03 12:52:42;;;;;;;9.70;5.00;;;;;;;25.48;46.15;98927.55;232978;214;138440;-62
2023/10/03 12:57:51;;;;;;;9.30;4.30;;;;;;;25.53;46.51;98919.60;232900;214;137856;-60
2023/10/03 13:02:57;;;;;;;21.70;17.30;;;;;;;25.70;47.41;98911.70;232907;214;150280;-59
2023/10/03 13:08:00;;;;;;;8.80;5.10;;;;;;;25.88;47.07;98904.65;232798;214;140678;-61
2023/10/03 13:13:05;;;;;;;10.50;5.20;;;;;;;26.13;47.36;98902.16;233050;214;137083;-60
2023/10/03 13:18:11;;;;;;;11.00;4.90;;;;;;;26.39;47.10;98897.98;232819;214;149341;-60
2023/10/03 13:23:15;;;;;;;63.10;51.00;;;;;;;26.56;46.50;98897.56;232988;214;138816;-62
2023/10/03 13:28:19;;;;;;;10.80;6.20;;;;;;;26.55;46.39;98893.77;232879;214;138333;-61
2023/10/03 13:33:24;;;;;;;8.90;5.40;;;;;;;26.34;46.23;98891.85;232990;214;150735;-57
2023/10/03 13:38:34;;;;;;;8.30;4.70;;;;;;;26.11;46.30;98890.85;232987;214;138892;-61
2023/10/03 13:43:39;;;;;;;10.40;5.50;;;;;;;25.93;46.53;98885.27;232930;214;137278;-62
2023/10/03 13:48:43;;;;;;;10.00;5.40;;;;;;;25.75;46.74;98880.86;232884;214;149657;-62
2023/10/03 13:53:47;;;;;;;9.20;5.60;;;;;;;25.59;46.86;98881.42;232879;214;139694;-62
2023/10/03 13:58:52;;;;;;;18.60;12.70;;;;;;;25.48;47.05;98880.27;232898;214;138071;-61
2023/10/03 14:03:56;;;;;;;;;;;;;;;25.43;47.50;98882.34;232981;214;151136;-63
2023/10/03 14:09:00;;;;;;;11.70;5.80;;;;;;;25.37;47.55;98882.88;232870;214;139988;-62
2023/10/03 14:14:04;;;;;;;16.10;8.00;;;;;;;25.35;48.45;98870.08;232981;215;137869;-62
2023/10/03 14:19:08;;;;;;;13.80;8.00;;;;;;;25.33;47.44;98863.14;232978;215;148905;-63
2023/10/03 14:24:12;;;;;;;13.30;7.70;;;;;;;25.30;47.72;98856.53;232917;215;138466;-64
2023/10/03 14:29:16;;;;;;;15.50;8.60;;;;;;;25.21;47.35;98866.05;232974;215;138573;-63
2023/10/03 14:34:20;;;;;;;21.10;11.40;;;;;;;25.16;47.58;98856.81;232941;215;151079;-59
2023/10/03 14:39:29;;;;;;;19.90;10.80;;;;;;;25.10;47.51;98863.27;233019;214;142403;-58
2023/10/03 14:44:39;;;;;;;16.70;9.20;;;;;;;25.04;47.36;98863.85;232768;214;137481;-63
2023/10/03 14:49:44;;;;;;;19.70;10.80;;;;;;;24.99;47.41;98859.10;232789;214;149306;-64
2023/10/03 14:54:49;;;;;;;;;;;;;;;24.93;47.67;98854.50;232885;214;139277;-61
2023/10/03 14:59:54;;;;;;;16.20;9.50;;;;;;;24.87;47.99;98856.06;232848;214;134788;-61
2023/10/03 15:04:58;;;;;;;174.50;135.10;;;;;;;24.81;48.49;98854.65;232773;214;148973;-59
2023/10/03 15:10:02;;;;;;;30.00;18.60;;;;;;;24.78;48.90;98852.95;232824;214;141797;-58
2023/10/03 15:15:08;;;;;;;17.00;10.80;;;;;;;24.75;49.09;98854.42;232844;214;260675;-62
2023/10/03 15:20:11;;;;;;;19.10;10.40;;;;;;;24.70;49.43;98850.00;232812;214;149295;-62
2023/10/03 15:25:16;;;;;;;21.90;12.20;;;;;;;24.61;49.73;98845.63;232803;215;137556;-62
2023/10/03 15:30:20;;;;;;;18.20;9.20;;;;;;;24.51;49.77;98844.89;232953;215;139481;-62
2023/10/03 15:35:24;;;;;;;17.60;10.40;;;;;;;24.42;50.19;98837.95;232936;215;150145;-62
2023/10/03 15:40:31;;;;;;;16.90;9.80;;;;;;;24.30;50.57;98839.14;232947;215;137778;-63
2023/10/03 15:45:35;;;;;;;19.00;9.60;;;;;;;24.18;50.59;98833.63;232845;215;137132;-62
2023/10/03 15:50:40;;;;;;;17.00;9.10;;;;;;;24.07;50.35;98838.41;232867;214;149370;-62
2023/10/03 15:55:43;;;;;;;;;;;;;;;23.96;50.56;98838.45;232829;215;139403;-61
2023/10/03 16:00:47;;;;;;;17.80;8.70;;;;;;;23.84;50.56;98833.05;232911;215;134740;-63
2023/10/03 16:05:52;;;;;;;17.50;9.10;;;;;;;23.72;50.93;98837.11;232912;215;149107;-61
2023/10/03 16:10:56;;;;;;;15.40;8.50;;;;;;;23.59;51.07;98840.00;232807;215;139275;-60
2023/10/03 16:16:01;;;;;;;;;;;;;;;23.48;51.32;98842.99;232842;215;137972;-61
2023/10/03 16:21:09;;;;;;;;;;;;;;;23.37;51.86;98839.61;232986;215;150389;-63
2023/10/03 16:26:14;;;;;;;28.20;11.90;;;;;;;23.25;51.92;98844.60;232850;214;139036;-62
2023/10/03 16:31:18;;;;;;;16.70;8.30;;;;;;;23.17;52.32;98845.81;232829;214;138632;-61
2023/10/03 16:36:23;;;;;;;18.60;8.70;;;;;;;23.08;52.39;98849.57;232933;214;149429;-64
2023/10/03 16:41:28;;;;;;;19.20;9.20;;;;;;;23.01;52.67;98852.95;232813;214;139072;-62
2023/10/03 16:46:32;;;;;;;15.20;8.30;;;;;;;22.92;52.94;98852.46;232822;215;137782;-62
2023/10/03 16:51:35;;;;;;;18.40;8.10;;;;;;;22.85;53.15;98850.32;232879;214;149805;-62
2023/10/03 16:56:41;;;;;;;364.00;310.90;;;;;;;22.72;53.77;98851.30;233007;214;139641;-61
2023/10/03 17:01:47;;;;;;;23.80;13.60;;;;;;;22.69;53.68;98845.36;232955;214;137980;-61
2023/10/03 17:06:57;;;;;;;14.50;8.50;;;;;;;22.72;52.67;98842.84;233024;214;148959;-60
2023/10/03 17:12:02;;;;;;;19.00;7.20;;;;;;;22.67;52.59;98844.73;232977;214;142541;-59
2023/10/03 17:17:08;;;;;;;19.00;8.20;;;;;;;22.57;52.61;98841.34;232955;214;137770;-59
2023/10/03 17:22:12;;;;;;;15.30;6.70;;;;;;;22.49;53.00;98841.18;232788;214;149409;-59
2023/10/03 17:27:16;;;;;;;16.70;6.90;;;;;;;22.37;53.04;98837.88;232890;214;139611;-59
2023/10/03 17:32:20;;;;;;;16.10;7.00;;;;;;;22.29;53.11;98837.84;232794;214;137403;-60
2023/10/03 17:37:25;;;;;;;13.90;7.10;;;;;;;22.22;53.47;98838.26;232819;214;151522;-58
2023/10/03 17:42:30;;;;;;;12.50;6.60;;;;;;;22.13;53.58;98837.68;232955;214;138342;-60
2023/10/03 17:47:35;;;;;;;13.20;6.50;;;;;;;22.03;53.69;98829.55;233085;215;137367;-60
2023/10/03 17:52:40;;;;;;;19.00;7.30;;;;;;;21.94;53.79;98828.18;232952;215;149201;-59
2023/10/03 17:57:45;;;;;;;14.10;6.40;;;;;;;21.87;54.12;98825.96;232878;215;138909;-61
2023/10/03 18:02:49;;;;;;;14.50;6.80;;;;;;;21.80;54.22;98826.92;232916;215;140745;-61
2023/10/03 18:07:55;;;;;;;52.10;39.30;;;;;;;21.72;54.54;98821.65;232915;215;151705;-63
2023/10/03 18:13:00;;;;;;;16.90;8.00;;;;;;;21.69;54.94;98818.06;232656;214;140159;-63
2023/10/03 18:18:07;;;;;;;14.10;7.10;;;;;;;21.63;54.93;98818.52;233010;214;137102;-61
2023/10/03 18:23:11;;;;;;;14.90;7.00;;;;;;;21.57;55.06;98823.53;232856;214;149658;-63
2023/10/03 18:28:15;;;;;;;14.10;7.30;;;;;;;21.50;55.10;98815.45;232823;214;138466;-62
2023/10/03 18:33:19;;;;;;;10.90;6.50;;;;;;;21.45;55.26;98821.00;232742;214;137067;-61
2023/10/03 18:38:25;;;;;;;14.30;6.60;;;;;;;21.42;55.43;98819.27;232812;214;149643;-59
2023/10/03 18:43:29;;;;;;;16.30;7.30;;;;;;;21.38;55.50;98820.59;232713;214;140028;-61
2023/10/03 18:48:33;;;;;;;17.70;6.80;;;;;;;21.33;55.80;98818.92;232910;214;137853;-62
2023/10/03 18:53:38;;;;;;;13.60;7.20;;;;;;;21.12;56.60;98820.73;232791;214;150892;-62
2023/10/03 18:58:42;;;;;;;16.40;7.50;;;;;;;20.89;57.40;98822.73;232698;214;138081;-62
2023/10/03 19:03:48;;;;;;;16.40;7.80;;;;;;;20.67;58.01;98819.27;232925;214;137096;-62
2023/10/03 19:08:52;;;;;;;15.50;7.70;;;;;;;20.47;58.85;98819.20;233028;214;149391;-62
2023/10/03 19:13:56;;;;;;;17.90;7.80;;;;;;;20.32;59.25;98819.34;232928;214;139000;-60
2023/10/03 19:19:00;;;;;;;15.60;7.80;;;;;;;20.18;59.96;98818.91;232818;214;138221;-61
2023/10/03 19:24:04;;;;;;;19.20;7.60;;;;;;;20.03;60.73;98822.25;232829;214;150285;-61
2023/10/03 19:29:09;;;;;;;19.30;8.10;;;;;;;19.88;61.07;98827.05;232893;214;139789;-62
2023/10/03 19:34:14;;;;;;;22.20;8.60;;;;;;;19.82;62.07;98821.98;232816;214;138784;-61
2023/10/03 19:39:18;;;;;;;17.50;7.70;;;;;;;19.69;62.35;98818.57;232828;214;149858;-62
2023/10/03 19:44:22;;;;;;;14.10;7.80;;;;;;;19.60;62.82;98812.84;232795;214;140708;-61
2023/10/03 19:49:26;;;;;;;14.70;8.00;;;;;;;19.56;63.28;98810.14;232685;214;137180;-60
2023/10/03 19:54:31;;;;;;;16.00;8.30;;;;;;;19.57;63.48;98805.24;232703;214;149142;-60
2023/10/03 19:59:35;;;;;;;20.40;7.90;;;;;;;19.62;63.00;98803.46;232847;214;138937;-61
2023/10/03 20:04:39;;;;;;;15.80;8.50;;;;;;;19.62;63.16;98797.27;232869;214;138295;-61
2023/10/03 20:09:44;;;;;;;16.40;7.80;;;;;;;19.58;63.31;98793.96;232879;214;149769;-61
2023/10/03 20:14:48;;;;;;;19.20;8.60;;;;;;;19.50;63.96;98789.41;232891;214;138887;-58
2023/10/03 20:19:52;;;;;;;22.50;8.70;;;;;;;19.41;64.15;98786.05;232810;214;137233;-64
2023/10/03 20:24:56;;;;;;;17.30;8.10;;;;;;;19.32;64.32;98782.80;232696;214;149935;-60
2023/10/03 20:30:00;;;;;;;20.40;9.20;;;;;;;19.27;64.46;98786.95;232798;214;138421;-61
2023/10/03 20:35:04;;;;;;;17.90;8.80;;;;;;;19.22;65.01;98781.89;232767;214;137046;-61
2023/10/03 20:40:09;;;;;;;18.20;8.70;;;;;;;19.15;65.24;98777.17;232768;214;149361;-61
2023/10/03 20:45:13;;;;;;;17.90;8.30;;;;;;;19.07;65.47;98784.60;232874;214;138885;-63
2023/10/03 20:50:17;;;;;;;13.60;7.40;;;;;;;19.10;65.33;98795.98;232904;214;137286;-63
2023/10/03 20:55:22;;;;;;;17.80;7.70;;;;;;;19.24;64.59;98796.91;232877;214;151397;-62
2023/10/03 21:00:26;;;;;;;13.00;6.60;;;;;;;19.45;64.06;98802.98;232962;214;141187;-59
2023/10/03 21:05:30;;;;;;;13.10;6.90;;;;;;;19.65;62.69;98800.64;232798;214;138312;-61
2023/10/03 21:10:38;;;;;;;13.10;6.50;;;;;;;19.84;61.98;98801.04;232789;214;150147;-60
2023/10/03 21:15:41;;;;;;;13.90;6.50;;;;;;;19.95;61.23;98815.32;232768;214;139716;-62
2023/10/03 21:20:48;;;;;;;14.00;6.50;;;;;;;20.04;60.88;98813.53;232891;214;137648;-62
2023/10/03 21:25:52;;;;;;;11.90;6.80;;;;;;;20.12;60.37;98813.64;232907;214;150190;-61
2023/10/03 21:30:57;;;;;;;13.70;6.60;;;;;;;20.14;60.02;98814.70;232793;214;139683;-60
2023/10/03 21:36:01;;;;;;;12.60;6.80;;;;;;;20.14;59.89;98813.58;232828;214;137263;-59
2023/10/03 21:41:07;;;;;;;13.90;6.70;;;;;;;20.15;59.65;98811.66;232772;214;149644;-62
2023/10/03 21:46:12;;;;;;;12.70;5.80;;;;;;;20.16;59.23;98812.98;232794;214;138539;-60
2023/10/03 21:51:18;;;;;;;12.70;6.40;;;;;;;20.17;59.14;98813.29;232808;214;137708;-62
2023/10/03 21:56:23;;;;;;;9.90;5.50;;;;;;;20.16;58.77;98809.61;232897;214;150050;-61
2023/10/03 22:01:26;;;;;;;12.70;5.70;;;;;;;20.17;58.67;98810.59;232884;215;139742;-61
2023/10/03 22:06:31;;;;;;;13.00;6.20;;;;;;;20.17;58.69;98809.51;232940;215;138005;-62
2023/10/03 22:11:36;;;;;;;11.90;6.20;;;;;;;20.19;58.67;98818.00;232939;215;149498;-62
2023/10/03 22:16:40;;;;;;;11.30;6.00;;;;;;;20.20;58.58;98821.24;232897;215;139727;-61
2023/10/03 22:21:50;;;;;;;12.10;5.70;;;;;;;20.22;58.55;98828.76;232891;215;138097;-60
2023/10/03 22:26:54;;;;;;;12.20;6.20;;;;;;;20.24;58.32;98841.36;233020;215;148456;-60
2023/10/03 22:31:58;;;;;;;11.60;6.00;;;;;;;20.25;58.35;98848.06;233011;215;139314;-59
2023/10/03 22:37:02;;;;;;;11.50;6.00;;;;;;;20.26;58.44;98856.21;232939;215;137713;-59
2023/10/03 22:42:06;;;;;;;11.90;5.90;;;;;;;20.23;58.64;98861.77;233135;215;150102;-62
2023/10/03 22:47:10;;;;;;;11.00;5.70;;;;;;;20.20;58.76;98895.27;232880;215;139893;-61
2023/10/03 22:52:13;;;;;;;15.40;5.50;;;;;;;20.17;59.09;98907.41;232997;215;137144;-61
2023/10/03 22:57:17;;;;;;;12.10;4.90;;;;;;;20.15;59.26;98929.27;233076;215;150127;-60
2023/10/03 23:02:21;;;;;;;10.10;5.20;;;;;;;20.13;59.46;98945.04;232971;215;139668;-60
2023/10/03 23:07:25;;;;;;;9.20;5.10;;;;;;;20.12;59.83;98965.80;232986;215;138510;-60
2023/10/03 23:12:29;;;;;;;8.60;4.60;;;;;;;20.13;60.22;98982.41;233021;215;150323;-61
2023/10/03 23:17:33;;;;;;;12.50;4.60;;;;;;;20.15;61.36;98989.60;232821;214;139701;-61
2023/10/03 23:22:37;;;;;;;10.60;4.60;;;;;;;20.14;62.40;99015.80;232824;214;137833;-62
2023/10/03 23:27:42;;;;;;;9.90;4.40;;;;;;;20.13;64.03;99044.23;232678;214;150633;-62